sensor_id;sensor_type;location;lat;lon;timestamp;pressure;altitude;pressure_sealevel;temperature;humidity
40920;BME280;26652;50.280;19.026;2022-07-22T00:01:44;98456.97;;;23.28;58.61
40920;BME280;26652;50.280;19.026;2022-07-22T00:04:26;98461.66;;;23.26;57.75
40920;BME280;26652;50.280;19.026;2022-07-22T00:09:02;98467.13;;;23.50;57.89
40920;BME280;26652;50.280;19.026;2022-07-22T00:11:21;98461.91;;;23.40;57.83
40920;BME280;26652;50.280;19.026;2022-07-22T00:15:49;98474.91;;;23.45;58.35
40920;BME280;26652;50.280;19.026;2022-07-22T00:18:17;98465.81;;;23.47;58.59
40920;BME280;26652;50.280;19.026;2022-07-22T00:22:47;98462.94;;;23.49;58.80
40920;BME280;26652;50.280;19.026;2022-07-22T00:25:24;98474.91;;;23.50;58.57
40920;BME280;26652;50.280;19.026;2022-07-22T00:29:54;98471.56;;;23.60;57.34
40920;BME280;26652;50.280;19.026;2022-07-22T00:32:07;98455.16;;;23.49;57.65
40920;BME280;26652;50.280;19.026;2022-07-22T00:36:37;98455.41;;;23.53;58.23
40920;BME280;26652;50.280;19.026;2022-07-22T00:39:03;98453.59;;;23.48;58.22
40920;BME280;26652;50.280;19.026;2022-07-22T00:41:27;98468.41;;;23.47;59.43
40920;BME280;26652;50.280;19.026;2022-07-22T00:48:58;98467.88;;;23.20;59.09
40920;BME280;26652;50.280;19.026;2022-07-22T00:51:37;98462.16;;;23.13;59.74
40920;BME280;26652;50.280;19.026;2022-07-22T00:53:58;98459.53;;;23.08;60.32
40920;BME280;26652;50.280;19.026;2022-07-22T00:56:19;98450.72;;;23.09;61.27
40920;BME280;26652;50.280;19.026;2022-07-22T00:58:46;98456.94;;;22.98;60.71
40920;BME280;26652;50.280;19.026;2022-07-22T01:01:26;98455.34;;;22.92;63.20
40920;BME280;26652;50.280;19.026;2022-07-22T01:03:42;98462.13;;;22.82;64.41
40920;BME280;26652;50.280;19.026;2022-07-22T01:05:54;98454.59;;;22.86;62.01
40920;BME280;26652;50.280;19.026;2022-07-22T01:08:06;98469.63;;;22.79;62.57
40920;BME280;26652;50.280;19.026;2022-07-22T01:10:26;98470.59;;;22.68;64.55
40920;BME280;26652;50.280;19.026;2022-07-22T01:14:56;98471.38;;;22.63;64.68
40920;BME280;26652;50.280;19.026;2022-07-22T01:17:24;98465.62;;;22.51;63.71
40920;BME280;26652;50.280;19.026;2022-07-22T01:19:51;98466.12;;;22.53;63.61
40920;BME280;26652;50.280;19.026;2022-07-22T01:30:19;98440.16;;;22.43;65.14
40920;BME280;26652;50.280;19.026;2022-07-22T01:32:36;98445.87;;;22.45;65.60
40920;BME280;26652;50.280;19.026;2022-07-22T01:35:02;98449.50;;;22.44;65.30
40920;BME280;26652;50.280;19.026;2022-07-22T01:37:23;98448.16;;;22.36;66.19
40920;BME280;26652;50.280;19.026;2022-07-22T01:39:59;98451.78;;;22.35;66.33
40920;BME280;26652;50.280;19.026;2022-07-22T01:42:33;98438.03;;;22.35;66.38
40920;BME280;26652;50.280;19.026;2022-07-22T01:44:51;98445.03;;;22.29;66.71
40920;BME280;26652;50.280;19.026;2022-07-22T01:47:21;98444.25;;;22.29;66.44
40920;BME280;26652;50.280;19.026;2022-07-22T01:49:51;98444.78;;;22.31;66.46
40920;BME280;26652;50.280;19.026;2022-07-22T01:52:22;98443.91;;;22.15;67.07
40920;BME280;26652;50.280;19.026;2022-07-22T01:54:48;98437.94;;;22.14;67.40
40920;BME280;26652;50.280;19.026;2022-07-22T01:57:18;98451.97;;;22.18;68.35
40920;BME280;26652;50.280;19.026;2022-07-22T02:02:05;98454.78;;;22.12;67.91
40920;BME280;26652;50.280;19.026;2022-07-22T02:04:28;98455.97;;;21.99;69.88
40920;BME280;26652;50.280;19.026;2022-07-22T02:09:07;98462.66;;;21.90;71.29
40920;BME280;26652;50.280;19.026;2022-07-22T02:11:34;98452.63;;;21.99;70.13
40920;BME280;26652;50.280;19.026;2022-07-22T02:14:00;98457.81;;;21.99;69.45
40920;BME280;26652;50.280;19.026;2022-07-22T02:16:42;98458.06;;;21.97;69.54
40920;BME280;26652;50.280;19.026;2022-07-22T02:19:17;98466.44;;;22.09;68.62
40920;BME280;26652;50.280;19.026;2022-07-22T02:21:53;98467.97;;;22.05;68.94
40920;BME280;26652;50.280;19.026;2022-07-22T02:24:28;98467.38;;;21.98;69.33
40920;BME280;26652;50.280;19.026;2022-07-22T02:26:55;98466.78;;;21.81;69.88
40920;BME280;26652;50.280;19.026;2022-07-22T02:29:22;98474.84;;;21.90;69.83
40920;BME280;26652;50.280;19.026;2022-07-22T02:31:50;98469.69;;;21.95;70.17
40920;BME280;26652;50.280;19.026;2022-07-22T02:36:31;98500.75;;;21.90;70.87
40920;BME280;26652;50.280;19.026;2022-07-22T02:41:03;98522.00;;;21.86;70.03
40920;BME280;26652;50.280;19.026;2022-07-22T02:43:29;98525.13;;;21.88;70.16
40920;BME280;26652;50.280;19.026;2022-07-22T02:45:57;98506.94;;;21.78;70.53
40920;BME280;26652;50.280;19.026;2022-07-22T02:50:17;98536.84;;;21.96;71.07
40920;BME280;26652;50.280;19.026;2022-07-22T02:52:48;98531.06;;;21.84;71.37
40920;BME280;26652;50.280;19.026;2022-07-22T02:55:15;98532.88;;;21.83;71.80
40920;BME280;26652;50.280;19.026;2022-07-22T02:59:54;98533.50;;;22.01;71.77
40920;BME280;26652;50.280;19.026;2022-07-22T03:02:31;98522.66;;;22.04;72.24
40920;BME280;26652;50.280;19.026;2022-07-22T03:04:58;98503.78;;;22.08;71.47
40920;BME280;26652;50.280;19.026;2022-07-22T03:07:41;98511.06;;;22.11;71.68
40920;BME280;26652;50.280;19.026;2022-07-22T03:12:42;98500.75;;;22.22;71.42
40920;BME280;26652;50.280;19.026;2022-07-22T03:15:06;98511.41;;;22.25;71.71
40920;BME280;26652;50.280;19.026;2022-07-22T03:17:15;98540.09;;;22.13;72.26
40920;BME280;26652;50.280;19.026;2022-07-22T03:21:47;98544.56;;;22.18;72.42
40920;BME280;26652;50.280;19.026;2022-07-22T03:24:21;98546.88;;;21.87;73.55
40920;BME280;26652;50.280;19.026;2022-07-22T03:26:49;98526.94;;;21.83;74.09
40920;BME280;26652;50.280;19.026;2022-07-22T03:29:17;98538.37;;;21.92;74.48
40920;BME280;26652;50.280;19.026;2022-07-22T03:31:45;98561.19;;;21.95;75.24
40920;BME280;26652;50.280;19.026;2022-07-22T03:34:13;98555.94;;;21.85;76.06
40920;BME280;26652;50.280;19.026;2022-07-22T03:38:48;98575.13;;;21.84;77.08
40920;BME280;26652;50.280;19.026;2022-07-22T03:41:29;98576.41;;;21.81;77.57
40920;BME280;26652;50.280;19.026;2022-07-22T03:46:03;98576.03;;;22.00;77.14
40920;BME280;26652;50.280;19.026;2022-07-22T03:48:31;98581.81;;;22.07;76.85
40920;BME280;26652;50.280;19.026;2022-07-22T03:53:10;98586.62;;;22.30;76.00
40920;BME280;26652;50.280;19.026;2022-07-22T03:55:45;98583.59;;;22.38;76.01
40920;BME280;26652;50.280;19.026;2022-07-22T03:58:20;98570.91;;;22.42;75.76
40920;BME280;26652;50.280;19.026;2022-07-22T04:00:54;98575.41;;;22.57;75.17
40920;BME280;26652;50.280;19.026;2022-07-22T04:03:31;98572.56;;;22.63;74.93
40920;BME280;26652;50.280;19.026;2022-07-22T04:08:05;98579.47;;;22.85;74.65
40920;BME280;26652;50.280;19.026;2022-07-22T04:10:35;98572.97;;;22.87;74.27
40920;BME280;26652;50.280;19.026;2022-07-22T04:13:11;98571.69;;;23.00;73.49
40920;BME280;26652;50.280;19.026;2022-07-22T04:15:40;98573.81;;;23.08;72.67
40920;BME280;26652;50.280;19.026;2022-07-22T04:18:12;98576.69;;;23.11;73.14
40920;BME280;26652;50.280;19.026;2022-07-22T04:20:40;98575.91;;;23.16;72.46
40920;BME280;26652;50.280;19.026;2022-07-22T04:23:13;98586.06;;;23.28;72.07
40920;BME280;26652;50.280;19.026;2022-07-22T04:25:41;98582.19;;;23.30;72.40
40920;BME280;26652;50.280;19.026;2022-07-22T04:28:05;98573.34;;;23.31;71.76
40920;BME280;26652;50.280;19.026;2022-07-22T04:32:37;98569.97;;;23.31;71.99
40920;BME280;26652;50.280;19.026;2022-07-22T04:35:03;98560.91;;;23.33;72.54
40920;BME280;26652;50.280;19.026;2022-07-22T04:37:22;98563.00;;;23.46;71.60
40920;BME280;26652;50.280;19.026;2022-07-22T04:41:58;98580.72;;;23.55;71.00
40920;BME280;26652;50.280;19.026;2022-07-22T04:44:27;98580.44;;;23.56;71.36
40920;BME280;26652;50.280;19.026;2022-07-22T04:49:08;98585.94;;;23.70;70.45
40920;BME280;26652;50.280;19.026;2022-07-22T04:51:36;98575.28;;;23.76;69.97
40920;BME280;26652;50.280;19.026;2022-07-22T04:56:12;98578.13;;;23.65;70.28
40920;BME280;26652;50.280;19.026;2022-07-22T04:58:42;98577.06;;;23.61;70.88
40920;BME280;26652;50.280;19.026;2022-07-22T05:01:13;98576.56;;;23.59;71.00
40920;BME280;26652;50.280;19.026;2022-07-22T05:03:40;98571.88;;;23.66;70.84
40920;BME280;26652;50.280;19.026;2022-07-22T05:08:12;98577.84;;;24.02;69.82
40920;BME280;26652;50.280;19.026;2022-07-22T05:10:36;98566.63;;;24.47;67.77
40920;BME280;26652;50.280;19.026;2022-07-22T05:13:14;98574.56;;;24.91;65.62
40920;BME280;26652;50.280;19.026;2022-07-22T05:15:53;98577.44;;;24.90;65.67
40920;BME280;26652;50.280;19.026;2022-07-22T05:20:43;98578.78;;;24.82;65.27
40920;BME280;26652;50.280;19.026;2022-07-22T05:23:11;98578.53;;;24.73;65.96
40920;BME280;26652;50.280;19.026;2022-07-22T05:25:29;98563.91;;;24.83;65.52
40920;BME280;26652;50.280;19.026;2022-07-22T05:28:02;98544.66;;;24.78;64.84
40920;BME280;26652;50.280;19.026;2022-07-22T05:30:41;98566.41;;;25.08;64.06
40920;BME280;26652;50.280;19.026;2022-07-22T05:32:51;98570.28;;;25.16;63.44
40920;BME280;26652;50.280;19.026;2022-07-22T05:35:13;98568.16;;;25.23;63.15
40920;BME280;26652;50.280;19.026;2022-07-22T05:37:46;98560.06;;;25.29;62.39
40920;BME280;26652;50.280;19.026;2022-07-22T05:40:03;98558.22;;;25.30;62.09
40920;BME280;26652;50.280;19.026;2022-07-22T05:44:31;98557.62;;;25.43;61.98
40920;BME280;26652;50.280;19.026;2022-07-22T05:46:59;98558.44;;;25.38;61.87
40920;BME280;26652;50.280;19.026;2022-07-22T05:49:23;98562.94;;;25.28;62.44
40920;BME280;26652;50.280;19.026;2022-07-22T05:54:03;98564.56;;;25.14;62.61
40920;BME280;26652;50.280;19.026;2022-07-22T05:58:32;98566.94;;;25.10;62.54
40920;BME280;26652;50.280;19.026;2022-07-22T06:01:06;98570.34;;;25.00;63.11
40920;BME280;26652;50.280;19.026;2022-07-22T06:03:33;98560.91;;;25.15;62.77
40920;BME280;26652;50.280;19.026;2022-07-22T06:06:08;98571.09;;;25.11;63.21
40920;BME280;26652;50.280;19.026;2022-07-22T06:08:36;98567.16;;;25.14;63.18
40920;BME280;26652;50.280;19.026;2022-07-22T06:11:11;98573.59;;;25.31;62.89
40920;BME280;26652;50.280;19.026;2022-07-22T06:13:40;98576.06;;;25.52;62.82
40920;BME280;26652;50.280;19.026;2022-07-22T06:16:06;98579.91;;;25.69;62.11
40920;BME280;26652;50.280;19.026;2022-07-22T06:20:57;98576.97;;;25.76;60.60
40920;BME280;26652;50.280;19.026;2022-07-22T06:23:38;98562.31;;;25.85;61.15
40920;BME280;26652;50.280;19.026;2022-07-22T06:26:01;98549.59;;;25.73;61.00
40920;BME280;26652;50.280;19.026;2022-07-22T06:28:43;98553.56;;;25.66;60.93
40920;BME280;26652;50.280;19.026;2022-07-22T06:31:12;98561.91;;;25.68;60.71
40920;BME280;26652;50.280;19.026;2022-07-22T06:33:30;98571.28;;;25.64;60.60
40920;BME280;26652;50.280;19.026;2022-07-22T06:38:03;98553.59;;;25.61;61.07
40920;BME280;26652;50.280;19.026;2022-07-22T06:40:35;98557.75;;;25.67;61.49
40920;BME280;26652;50.280;19.026;2022-07-22T06:45:02;98566.34;;;25.62;61.35
40920;BME280;26652;50.280;19.026;2022-07-22T06:47:36;98570.03;;;25.56;60.68
40920;BME280;26652;50.280;19.026;2022-07-22T06:49:57;98560.16;;;25.53;61.14
40920;BME280;26652;50.280;19.026;2022-07-22T06:54:35;98582.06;;;25.91;61.26
40920;BME280;26652;50.280;19.026;2022-07-22T06:57:08;98590.03;;;26.05;61.75
40920;BME280;26652;50.280;19.026;2022-07-22T06:59:35;98589.50;;;26.03;60.78
40920;BME280;26652;50.280;19.026;2022-07-22T07:02:02;98585.59;;;26.05;61.55
40920;BME280;26652;50.280;19.026;2022-07-22T07:04:27;98594.56;;;26.23;60.37
40920;BME280;26652;50.280;19.026;2022-07-22T07:09:24;98588.44;;;26.38;59.77
40920;BME280;26652;50.280;19.026;2022-07-22T07:12:09;98592.63;;;26.39;59.42
40920;BME280;26652;50.280;19.026;2022-07-22T07:14:38;98596.22;;;26.43;59.15
40920;BME280;26652;50.280;19.026;2022-07-22T07:17:08;98601.34;;;26.53;59.28
40920;BME280;26652;50.280;19.026;2022-07-22T07:19:37;98596.28;;;26.62;59.12
40920;BME280;26652;50.280;19.026;2022-07-22T07:22:24;98598.75;;;26.53;58.67
40920;BME280;26652;50.280;19.026;2022-07-22T07:25:03;98586.34;;;26.88;58.75
40920;BME280;26652;50.280;19.026;2022-07-22T07:27:39;98587.16;;;27.07;57.34
40920;BME280;26652;50.280;19.026;2022-07-22T07:30:07;98596.91;;;27.01;56.99
40920;BME280;26652;50.280;19.026;2022-07-22T07:32:31;98598.75;;;26.77;57.13
40920;BME280;26652;50.280;19.026;2022-07-22T07:34:41;98606.47;;;26.87;58.50
40920;BME280;26652;50.280;19.026;2022-07-22T07:37:06;98596.22;;;26.91;56.71
40920;BME280;26652;50.280;19.026;2022-07-22T07:39:31;98606.50;;;27.06;57.09
40920;BME280;26652;50.280;19.026;2022-07-22T07:42:07;98600.03;;;27.22;56.72
40920;BME280;26652;50.280;19.026;2022-07-22T07:44:30;98594.50;;;27.05;56.96
40920;BME280;26652;50.280;19.026;2022-07-22T07:47:06;98601.56;;;27.23;57.09
40920;BME280;26652;50.280;19.026;2022-07-22T07:49:32;98607.66;;;27.19;57.70
40920;BME280;26652;50.280;19.026;2022-07-22T07:52:13;98613.16;;;27.36;56.51
40920;BME280;26652;50.280;19.026;2022-07-22T07:54:41;98611.53;;;27.40;56.93
40920;BME280;26652;50.280;19.026;2022-07-22T07:59:23;98605.41;;;27.68;55.50
40920;BME280;26652;50.280;19.026;2022-07-22T08:01:43;98609.50;;;27.75;55.14
40920;BME280;26652;50.280;19.026;2022-07-22T08:04:06;98603.63;;;27.83;54.59
40920;BME280;26652;50.280;19.026;2022-07-22T08:08:42;98615.22;;;28.09;54.75
40920;BME280;26652;50.280;19.026;2022-07-22T08:13:52;98623.75;;;28.15;53.45
40920;BME280;26652;50.280;19.026;2022-07-22T08:16:20;98614.25;;;28.05;53.37
40920;BME280;26652;50.280;19.026;2022-07-22T08:20:48;98618.38;;;28.25;53.15
40920;BME280;26652;50.280;19.026;2022-07-22T08:23:16;98613.66;;;28.41;53.07
40920;BME280;26652;50.280;19.026;2022-07-22T08:25:44;98611.63;;;28.51;52.51
40920;BME280;26652;50.280;19.026;2022-07-22T08:30:18;98616.28;;;28.54;53.01
40920;BME280;26652;50.280;19.026;2022-07-22T08:32:30;98612.03;;;28.58;52.37
40920;BME280;26652;50.280;19.026;2022-07-22T08:35:06;98619.78;;;28.63;51.59
40920;BME280;26652;50.280;19.026;2022-07-22T08:39:57;98627.94;;;28.76;51.94
40920;BME280;26652;50.280;19.026;2022-07-22T08:42:39;98615.75;;;28.85;50.57
40920;BME280;26652;50.280;19.026;2022-07-22T08:44:54;98614.19;;;28.98;50.72
40920;BME280;26652;50.280;19.026;2022-07-22T08:47:23;98622.44;;;29.05;51.50
40920;BME280;26652;50.280;19.026;2022-07-22T08:49:40;98623.56;;;29.12;51.30
40920;BME280;26652;50.280;19.026;2022-07-22T08:52:04;98620.97;;;28.85;51.26
40920;BME280;26652;50.280;19.026;2022-07-22T08:54:22;98614.00;;;28.94;51.54
40920;BME280;26652;50.280;19.026;2022-07-22T08:56:39;98615.81;;;29.07;51.05
40920;BME280;26652;50.280;19.026;2022-07-22T08:59:11;98623.38;;;28.81;50.25
40920;BME280;26652;50.280;19.026;2022-07-22T09:02:01;98621.44;;;28.73;51.13
40920;BME280;26652;50.280;19.026;2022-07-22T09:04:27;98629.03;;;28.88;51.37
40920;BME280;26652;50.280;19.026;2022-07-22T09:07:00;98627.00;;;28.99;50.56
40920;BME280;26652;50.280;19.026;2022-07-22T09:09:32;98622.91;;;29.07;50.23
40920;BME280;26652;50.280;19.026;2022-07-22T09:12:05;98630.50;;;28.94;51.17
40920;BME280;26652;50.280;19.026;2022-07-22T09:14:31;98631.75;;;28.97;50.38
40920;BME280;26652;50.280;19.026;2022-07-22T09:19:15;98620.19;;;28.98;49.94
40920;BME280;26652;50.280;19.026;2022-07-22T09:21:56;98616.50;;;28.99;50.18
40920;BME280;26652;50.280;19.026;2022-07-22T09:24:32;98610.97;;;28.73;50.81
40920;BME280;26652;50.280;19.026;2022-07-22T09:29:04;98620.50;;;28.96;50.79
40920;BME280;26652;50.280;19.026;2022-07-22T09:31:26;98620.87;;;29.04;50.61
40920;BME280;26652;50.280;19.026;2022-07-22T09:36:04;98613.22;;;29.29;50.26
40920;BME280;26652;50.280;19.026;2022-07-22T09:38:30;98609.06;;;29.28;50.06
40920;BME280;26652;50.280;19.026;2022-07-22T09:40:57;98611.44;;;29.39;49.35
40920;BME280;26652;50.280;19.026;2022-07-22T09:43:21;98609.81;;;29.43;49.12
40920;BME280;26652;50.280;19.026;2022-07-22T09:45:50;98613.41;;;29.47;49.87
40920;BME280;26652;50.280;19.026;2022-07-22T09:48:12;98603.41;;;29.71;49.09
40920;BME280;26652;50.280;19.026;2022-07-22T09:50:47;98608.75;;;29.88;49.04
40920;BME280;26652;50.280;19.026;2022-07-22T09:55:17;98606.13;;;29.66;47.85
40920;BME280;26652;50.280;19.026;2022-07-22T09:57:49;98610.78;;;29.33;48.31
40920;BME280;26652;50.280;19.026;2022-07-22T10:00:15;98604.41;;;29.25;48.49
40920;BME280;26652;50.280;19.026;2022-07-22T10:02:30;98599.50;;;29.46;48.10
40920;BME280;26652;50.280;19.026;2022-07-22T10:04:56;98607.44;;;29.55;48.31
40920;BME280;26652;50.280;19.026;2022-07-22T10:09:28;98597.44;;;30.02;47.87
40920;BME280;26652;50.280;19.026;2022-07-22T10:11:52;98599.81;;;30.12;47.75
40920;BME280;26652;50.280;19.026;2022-07-22T10:14:18;98598.44;;;30.23;46.62
40920;BME280;26652;50.280;19.026;2022-07-22T10:16:41;98598.31;;;30.28;46.65
40920;BME280;26652;50.280;19.026;2022-07-22T10:19:15;98608.09;;;30.36;47.06
40920;BME280;26652;50.280;19.026;2022-07-22T10:21:46;98598.66;;;30.35;46.43
40920;BME280;26652;50.280;19.026;2022-07-22T10:24:16;98600.59;;;30.52;46.21
40920;BME280;26652;50.280;19.026;2022-07-22T10:26:53;98604.06;;;30.70;46.23
40920;BME280;26652;50.280;19.026;2022-07-22T10:29:27;98601.81;;;30.46;46.18
40920;BME280;26652;50.280;19.026;2022-07-22T10:33:58;98612.03;;;30.56;45.93
40920;BME280;26652;50.280;19.026;2022-07-22T10:36:35;98597.50;;;30.50;45.65
40920;BME280;26652;50.280;19.026;2022-07-22T10:39:07;98602.09;;;30.44;46.20
40920;BME280;26652;50.280;19.026;2022-07-22T10:41:35;98608.69;;;30.64;45.35
40920;BME280;26652;50.280;19.026;2022-07-22T10:46:04;98603.94;;;30.75;45.49
40920;BME280;26652;50.280;19.026;2022-07-22T10:48:44;98595.81;;;30.54;45.78
40920;BME280;26652;50.280;19.026;2022-07-22T10:53:58;98595.16;;;30.48;45.71
40920;BME280;26652;50.280;19.026;2022-07-22T10:56:36;98593.91;;;30.46;44.76
40920;BME280;26652;50.280;19.026;2022-07-22T10:58:56;98594.78;;;30.64;44.97
40920;BME280;26652;50.280;19.026;2022-07-22T11:01:14;98593.88;;;30.77;44.74
40920;BME280;26652;50.280;19.026;2022-07-22T11:03:43;98590.50;;;30.85;45.10
40920;BME280;26652;50.280;19.026;2022-07-22T11:08:09;98585.09;;;30.90;44.91
40920;BME280;26652;50.280;19.026;2022-07-22T11:10:33;98584.47;;;30.76;45.06
40920;BME280;26652;50.280;19.026;2022-07-22T11:13:01;98577.00;;;30.61;45.37
40920;BME280;26652;50.280;19.026;2022-07-22T11:15:35;98563.25;;;30.72;44.56
40920;BME280;26652;50.280;19.026;2022-07-22T11:18:02;98578.47;;;30.93;43.20
40920;BME280;26652;50.280;19.026;2022-07-22T11:20:26;98577.84;;;31.04;43.47
40920;BME280;26652;50.280;19.026;2022-07-22T11:25:07;98577.19;;;30.81;43.59
40920;BME280;26652;50.280;19.026;2022-07-22T11:27:38;98580.59;;;30.82;44.10
40920;BME280;26652;50.280;19.026;2022-07-22T11:30:07;98578.94;;;30.95;43.87
40920;BME280;26652;50.280;19.026;2022-07-22T11:32:30;98576.16;;;31.08;43.06
40920;BME280;26652;50.280;19.026;2022-07-22T11:34:58;98568.91;;;31.14;42.62
40920;BME280;26652;50.280;19.026;2022-07-22T11:37:21;98570.75;;;31.22;42.70
40920;BME280;26652;50.280;19.026;2022-07-22T11:40:03;98565.94;;;31.33;42.84
40920;BME280;26652;50.280;19.026;2022-07-22T11:42:26;98561.31;;;31.47;43.18
40920;BME280;26652;50.280;19.026;2022-07-22T11:44:45;98557.09;;;31.63;42.87
40920;BME280;26652;50.280;19.026;2022-07-22T11:49:22;98564.06;;;31.68;42.56
40920;BME280;26652;50.280;19.026;2022-07-22T11:51:52;98559.28;;;31.70;43.49
40920;BME280;26652;50.280;19.026;2022-07-22T11:54:12;98557.44;;;31.70;42.55
40920;BME280;26652;50.280;19.026;2022-07-22T11:56:52;98558.19;;;31.71;42.83
40920;BME280;26652;50.280;19.026;2022-07-22T11:59:19;98552.00;;;31.67;43.66
40920;BME280;26652;50.280;19.026;2022-07-22T12:01:47;98548.44;;;31.63;43.22
40920;BME280;26652;50.280;19.026;2022-07-22T12:04:12;98539.31;;;31.60;43.43
40920;BME280;26652;50.280;19.026;2022-07-22T12:06:38;98544.72;;;31.72;43.21
40920;BME280;26652;50.280;19.026;2022-07-22T12:09:20;98544.41;;;31.74;42.63
40920;BME280;26652;50.280;19.026;2022-07-22T12:11:42;98538.37;;;31.73;42.31
40920;BME280;26652;50.280;19.026;2022-07-22T12:14:16;98542.25;;;31.76;41.59
40920;BME280;26652;50.280;19.026;2022-07-22T12:16:38;98532.31;;;31.81;42.63
40920;BME280;26652;50.280;19.026;2022-07-22T12:21:08;98521.25;;;31.97;42.20
40920;BME280;26652;50.280;19.026;2022-07-22T12:23:38;98522.19;;;32.01;42.13
40920;BME280;26652;50.280;19.026;2022-07-22T12:26:29;98522.31;;;32.04;42.52
40920;BME280;26652;50.280;19.026;2022-07-22T12:28:49;98520.25;;;32.18;41.99
40920;BME280;26652;50.280;19.026;2022-07-22T12:33:47;98528.75;;;32.54;41.18
40920;BME280;26652;50.280;19.026;2022-07-22T12:36:13;98508.22;;;32.38;40.53
40920;BME280;26652;50.280;19.026;2022-07-22T12:38:47;98519.81;;;32.46;41.07
40920;BME280;26652;50.280;19.026;2022-07-22T12:41:29;98515.69;;;32.57;40.77
40920;BME280;26652;50.280;19.026;2022-07-22T12:44:16;98512.16;;;32.53;40.34
40920;BME280;26652;50.280;19.026;2022-07-22T12:46:46;98514.37;;;32.42;40.29
40920;BME280;26652;50.280;19.026;2022-07-22T12:49:26;98509.38;;;32.49;40.58
40920;BME280;26652;50.280;19.026;2022-07-22T12:53:47;98507.87;;;32.69;40.54
40920;BME280;26652;50.280;19.026;2022-07-22T12:56:10;98503.38;;;32.11;40.75
40920;BME280;26652;50.280;19.026;2022-07-22T13:00:45;98498.31;;;32.35;40.56
40920;BME280;26652;50.280;19.026;2022-07-22T13:03:16;98489.84;;;32.50;40.89
40920;BME280;26652;50.280;19.026;2022-07-22T13:05:43;98493.00;;;32.65;40.72
40920;BME280;26652;50.280;19.026;2022-07-22T13:08:16;98490.63;;;32.72;40.21
40920;BME280;26652;50.280;19.026;2022-07-22T13:10:37;98487.88;;;32.68;40.72
40920;BME280;26652;50.280;19.026;2022-07-22T13:13:01;98491.00;;;32.62;39.34
40920;BME280;26652;50.280;19.026;2022-07-22T13:15:44;98474.94;;;32.55;39.91
40920;BME280;26652;50.280;19.026;2022-07-22T13:18:12;98480.22;;;32.75;40.00
40920;BME280;26652;50.280;19.026;2022-07-22T13:20:34;98480.78;;;32.60;40.24
40920;BME280;26652;50.280;19.026;2022-07-22T13:22:59;98477.00;;;32.70;39.77
40920;BME280;26652;50.280;19.026;2022-07-22T13:25:29;98475.25;;;32.74;40.24
40920;BME280;26652;50.280;19.026;2022-07-22T13:27:49;98476.44;;;32.85;40.05
40920;BME280;26652;50.280;19.026;2022-07-22T13:30:12;98466.16;;;32.92;40.28
40920;BME280;26652;50.280;19.026;2022-07-22T13:34:45;98478.94;;;33.02;39.94
40920;BME280;26652;50.280;19.026;2022-07-22T13:37:14;98470.25;;;33.02;39.74
40920;BME280;26652;50.280;19.026;2022-07-22T13:39:39;98464.44;;;33.08;39.41
40920;BME280;26652;50.280;19.026;2022-07-22T13:44:11;98460.75;;;33.22;39.44
40920;BME280;26652;50.280;19.026;2022-07-22T13:46:36;98460.63;;;33.18;39.05
40920;BME280;26652;50.280;19.026;2022-07-22T13:49:15;98461.31;;;33.27;39.04
40920;BME280;26652;50.280;19.026;2022-07-22T13:56:52;98459.47;;;33.40;39.20
40920;BME280;26652;50.280;19.026;2022-07-22T13:59:10;98451.13;;;33.38;39.39
40920;BME280;26652;50.280;19.026;2022-07-22T14:04:17;98448.84;;;33.48;39.20
40920;BME280;26652;50.280;19.026;2022-07-22T14:06:37;98455.09;;;33.44;38.87
40920;BME280;26652;50.280;19.026;2022-07-22T14:09:20;98444.13;;;33.54;39.42
40920;BME280;26652;50.280;19.026;2022-07-22T14:11:54;98451.06;;;33.59;38.28
40920;BME280;26652;50.280;19.026;2022-07-22T14:16:25;98441.59;;;33.70;38.43
40920;BME280;26652;50.280;19.026;2022-07-22T14:18:57;98434.84;;;33.48;38.52
40920;BME280;26652;50.280;19.026;2022-07-22T14:21:30;98435.41;;;33.41;38.84
40920;BME280;26652;50.280;19.026;2022-07-22T14:23:51;98433.44;;;33.51;38.57
40920;BME280;26652;50.280;19.026;2022-07-22T14:28:33;98438.28;;;33.61;39.29
40920;BME280;26652;50.280;19.026;2022-07-22T14:30:53;98432.09;;;33.44;38.37
40920;BME280;26652;50.280;19.026;2022-07-22T14:33:23;98429.34;;;33.41;38.25
40920;BME280;26652;50.280;19.026;2022-07-22T14:38:07;98436.84;;;33.63;38.18
40920;BME280;26652;50.280;19.026;2022-07-22T14:40:44;98432.78;;;33.54;38.10
40920;BME280;26652;50.280;19.026;2022-07-22T14:43:20;98429.56;;;33.48;37.81
40920;BME280;26652;50.280;19.026;2022-07-22T14:46:00;98426.41;;;33.55;37.64
40920;BME280;26652;50.280;19.026;2022-07-22T14:48:16;98423.84;;;33.46;37.38
40920;BME280;26652;50.280;19.026;2022-07-22T14:53:06;98428.47;;;33.49;37.85
40920;BME280;26652;50.280;19.026;2022-07-22T14:55:29;98422.09;;;33.50;38.00
40920;BME280;26652;50.280;19.026;2022-07-22T15:00:06;98427.56;;;33.33;38.50
40920;BME280;26652;50.280;19.026;2022-07-22T15:02:35;98421.88;;;33.43;37.88
40920;BME280;26652;50.280;19.026;2022-07-22T15:04:55;98421.66;;;33.48;37.52
40920;BME280;26652;50.280;19.026;2022-07-22T15:07:38;98422.94;;;33.30;38.00
40920;BME280;26652;50.280;19.026;2022-07-22T15:10:06;98428.66;;;33.20;38.21
40920;BME280;26652;50.280;19.026;2022-07-22T15:12:36;98419.09;;;33.27;38.76
40920;BME280;26652;50.280;19.026;2022-07-22T15:15:02;98422.41;;;33.36;37.70
40920;BME280;26652;50.280;19.026;2022-07-22T15:17:37;98406.69;;;33.40;38.16
40920;BME280;26652;50.280;19.026;2022-07-22T15:22:05;98423.22;;;33.61;37.51
40920;BME280;26652;50.280;19.026;2022-07-22T15:24:33;98418.81;;;33.53;38.18
40920;BME280;26652;50.280;19.026;2022-07-22T15:27:10;98417.47;;;33.35;38.94
40920;BME280;26652;50.280;19.026;2022-07-22T15:29:51;98413.59;;;33.32;38.53